Time;durP1;ratioP1;P1;durP2;ratioP2;P2;SDS_P1;SDS_P2;PMS_P1;PMS_P2;Temp;Humidity;BMP_temperature;BMP_pressure;BME280_temperature;BME280_humidity;BME280_pressure;Samples;Min_cycle;Max_cycle;Signal;HPM_P1;HPM_P2
2022/04/26 03:37:23;;;;;;;1.13;0.77;;;;;;;21.58;43.33;98872.88;5109778;28;20606;-62
2022/04/26 03:39:49;;;;;;;1.23;0.75;;;;;;;21.59;43.46;98877.25;5109593;28;20503;-62
2022/04/26 03:42:14;;;;;;;0.90;0.60;;;;;;;21.58;43.32;98878.44;5109691;28;20043;-62
2022/04/26 03:44:40;;;;;;;1.10;0.70;;;;;;;21.59;43.22;98873.66;5109539;28;20134;-61
2022/04/26 03:47:06;;;;;;;1.00;0.70;;;;;;;21.60;43.52;98878.03;5109540;28;20075;-61
2022/04/26 03:49:31;;;;;;;0.80;0.60;;;;;;;21.60;43.07;98872.47;5109434;28;20047;-62
2022/04/26 03:51:56;;;;;;;1.00;0.70;;;;;;;21.60;43.40;98880.81;5091257;28;20043;-61
2022/04/26 03:54:23;;;;;;;1.20;0.80;;;;;;;21.60;43.40;98880.81;5109329;28;20190;-62
2022/04/26 03:56:49;;;;;;;0.73;0.60;;;;;;;21.60;43.42;98883.59;5109508;28;20050;-61
2022/04/26 03:59:15;;;;;;;0.85;0.60;;;;;;;21.59;43.34;98885.59;5111106;28;20040;-61
2022/04/26 04:01:41;;;;;;;0.95;0.60;;;;;;;21.57;43.09;98879.59;5112909;28;20044;-62
2022/04/26 04:04:07;;;;;;;1.02;0.80;;;;;;;21.59;43.29;98882.00;5112866;28;20343;-61
2022/04/26 04:06:32;;;;;;;0.90;0.60;;;;;;;21.59;43.14;98879.22;5112864;28;20050;-62
2022/04/26 04:08:58;;;;;;;1.33;0.80;;;;;;;21.58;43.15;98883.19;5112554;28;20093;-61
2022/04/26 04:11:24;;;;;;;0.70;0.50;;;;;;;21.58;43.22;98880.41;5112548;28;20046;-62
2022/04/26 04:13:50;;;;;;;0.98;0.70;;;;;;;21.55;43.15;98881.97;5112803;28;20387;-61
2022/04/26 04:16:15;;;;;;;1.00;0.70;;;;;;;21.55;43.09;98890.34;5112675;28;20070;-62
2022/04/26 04:21:24;;;;;;;1.40;0.90;;;;;;;21.58;43.32;98891.56;5112777;28;20054;-61
2022/04/26 04:23:50;;;;;;;0.95;0.73;;;;;;;21.56;43.03;98893.91;5112615;28;20047;-61
2022/04/26 04:26:15;;;;;;;1.00;0.70;;;;;;;21.56;42.85;98899.47;5112619;28;20488;-61
2022/04/26 04:28:41;;;;;;;0.80;0.50;;;;;;;21.56;43.20;98902.25;5112606;28;20046;-61
2022/04/26 04:31:08;;;;;;;0.80;0.60;;;;;;;21.56;42.88;98903.06;5112478;28;20051;-61
2022/04/26 04:33:34;;;;;;;1.30;0.80;;;;;;;21.56;43.12;98905.03;5112423;28;20530;-61
2022/04/26 04:35:59;;;;;;;0.90;0.63;;;;;;;21.56;43.26;98910.59;5112324;28;20035;-62
2022/04/26 04:38:26;;;;;;;0.82;0.70;;;;;;;21.55;42.99;98906.22;5112315;28;20043;-62
2022/04/26 04:40:52;;;;;;;1.15;0.60;;;;;;;21.55;43.11;98909.81;5112228;28;20043;-62
2022/04/26 04:43:18;;;;;;;0.77;0.60;;;;;;;21.55;42.98;98920.94;5112094;28;20043;-62
2022/04/26 04:45:43;;;;;;;0.90;0.70;;;;;;;21.55;43.16;98923.72;5112284;28;20092;-62
2022/04/26 04:48:09;;;;;;;1.02;0.57;;;;;;;21.55;43.20;98925.72;5112165;28;20083;-62
2022/04/26 04:50:35;;;;;;;0.90;0.65;;;;;;;21.55;43.07;98911.78;5112233;28;20127;-61
2022/04/26 04:53:01;;;;;;;1.27;0.80;;;;;;;21.56;43.08;98930.09;5112186;28;20527;-61
2022/04/26 04:55:26;;;;;;;1.10;0.73;;;;;;;21.54;43.24;98932.47;5112157;28;20043;-61
2022/04/26 04:57:52;;;;;;;1.40;0.80;;;;;;;21.54;43.44;98929.69;5112164;28;20047;-61
2022/04/26 05:00:18;;;;;;;1.00;0.73;;;;;;;21.55;43.30;98937.63;5111843;28;20047;-61
2022/04/26 05:02:43;;;;;;;1.00;0.73;;;;;;;21.55;43.31;98936.84;5111886;28;20042;-61
2022/04/26 05:05:09;;;;;;;1.00;0.60;;;;;;;21.54;43.49;98938.84;5111934;28;20040;-61
2022/04/26 05:07:36;;;;;;;0.93;0.70;;;;;;;21.53;43.47;98937.25;5111566;28;20078;-61
2022/04/26 05:10:02;;;;;;;0.90;0.63;;;;;;;21.54;43.58;98932.47;5111403;28;20072;-61
2022/04/26 05:12:27;;;;;;;1.10;0.73;;;;;;;21.54;43.34;98935.25;5111663;28;20503;-61
2022/04/26 05:14:53;;;;;;;0.77;0.60;;;;;;;21.54;43.65;98935.25;5111114;28;20040;-61
2022/04/26 05:17:18;;;;;;;0.85;0.70;;;;;;;21.54;43.52;98941.63;5111556;28;20442;-62
2022/04/26 05:19:44;;;;;;;1.17;0.65;;;;;;;21.55;43.31;98950.75;5111718;28;20078;-61
2022/04/26 05:22:10;;;;;;;1.40;0.90;;;;;;;21.55;43.31;98945.19;5111635;28;20078;-62
2022/04/26 05:24:56;;;;;;;1.13;0.77;;;;;;;21.54;43.44;98951.94;5111647;28;20127;-61
2022/04/26 05:27:26;;;;;;;0.68;0.60;;;;;;;21.54;43.70;98944.41;5110922;28;20044;-62
2022/04/26 05:29:52;;;;;;;0.80;0.68;;;;;;;21.55;43.72;98942.41;5111502;28;20044;-61
2022/04/26 05:32:25;;;;;;;1.00;0.70;;;;;;;21.54;43.62;98957.50;5111310;28;20040;-62
2022/04/26 05:35:01;;;;;;;1.20;0.70;;;;;;;21.53;43.48;98950.34;5111351;28;20171;-61
2022/04/26 05:37:29;;;;;;;2.53;0.80;;;;;;;21.64;43.67;98956.75;5111250;28;20146;-62
2022/04/26 05:39:59;;;;;;;11.73;1.90;;;;;;;21.71;43.58;98962.34;5111320;28;20118;-61
2022/04/26 05:42:25;;;;;;;19.05;1.90;;;;;;;21.75;43.51;98935.34;5111433;28;20122;-61
2022/04/26 05:44:50;;;;;;;10.15;1.75;;;;;;;21.68;43.74;98958.38;5111308;28;20160;-61
2022/04/26 05:47:16;;;;;;;10.93;1.67;;;;;;;21.62;43.99;98961.91;5111280;28;20066;-61
2022/04/26 05:49:41;;;;;;;4.45;1.40;;;;;;;21.58;44.36;98975.03;5111134;28;20521;-61
2022/04/26 05:52:07;;;;;;;3.70;1.23;;;;;;;21.55;44.46;98970.25;5111198;28;20081;-61
2022/04/26 05:54:32;;;;;;;10.98;1.13;;;;;;;21.53;44.15;98961.50;5111290;28;20051;-61
2022/04/26 05:56:58;;;;;;;7.70;1.20;;;;;;;21.54;44.32;98975.00;5111167;28;20046;-61
2022/04/26 05:59:24;;;;;;;6.10;1.50;;;;;;;21.54;44.25;98972.22;5111225;28;20048;-61
2022/04/26 06:01:51;;;;;;;3.85;1.08;;;;;;;21.54;44.00;98977.78;5111220;28;20380;-61
2022/04/26 06:04:18;;;;;;;4.15;1.23;;;;;;;21.54;44.27;98975.00;5111091;28;20491;-61
2022/04/26 06:06:43;;;;;;;5.00;1.17;;;;;;;21.54;43.92;98974.22;5110706;28;20059;-61
2022/04/26 06:09:09;;;;;;;3.88;1.10;;;;;;;21.54;44.00;98968.66;5110598;28;20672;-61
2022/04/26 06:11:35;;;;;;;3.13;1.20;;;;;;;21.55;43.87;98973.03;5110824;28;20039;-61
2022/04/26 06:14:01;;;;;;;3.92;0.98;;;;;;;21.54;43.97;98977.78;5106963;28;20369;-61
2022/04/26 06:16:28;;;;;;;3.05;1.50;;;;;;;21.55;44.01;98970.25;5110671;28;20035;-61
2022/04/26 06:18:54;;;;;;;5.15;1.30;;;;;;;21.54;44.17;98974.22;5110749;28;20507;-61
2022/04/26 06:21:19;;;;;;;3.22;1.10;;;;;;;21.55;44.13;98967.47;5109988;28;20088;-61
2022/04/26 06:23:45;;;;;;;1.60;1.00;;;;;;;21.56;43.93;98983.75;5110760;28;20047;-61
2022/04/26 06:26:10;;;;;;;3.63;0.95;;;;;;;21.57;43.97;98978.97;5110502;28;20031;-61
2022/04/26 06:28:35;;;;;;;2.50;1.08;;;;;;;21.57;43.90;98981.78;5109656;28;20410;-61
2022/04/26 06:31:02;;;;;;;2.60;0.90;;;;;;;21.59;43.90;98988.56;5105130;28;20075;-63
2022/04/26 06:33:28;;;;;;;4.72;1.13;;;;;;;21.61;44.51;98986.19;5110311;28;20131;-62
2022/04/26 06:35:53;;;;;;;8.68;0.85;;;;;;;21.59;44.29;98979.41;5107427;28;20200;-62
2022/04/26 06:38:21;;;;;;;3.70;1.08;;;;;;;21.63;44.26;98985.78;5109252;28;20048;-64
2022/04/26 06:40:47;;;;;;;3.90;1.10;;;;;;;21.64;44.49;98981.81;5110295;28;20040;-63
2022/04/26 06:43:13;;;;;;;3.28;0.95;;;;;;;21.64;44.40;98979.81;5109314;28;20039;-63
2022/04/26 06:45:38;;;;;;;4.45;0.90;;;;;;;21.68;44.47;98985.41;5109084;28;20568;-64
2022/04/26 06:48:11;;;;;;;1.92;1.10;;;;;;;21.66;44.20;98977.47;5110200;28;20122;-64
2022/04/26 06:50:37;;;;;;;3.88;1.38;;;;;;;21.67;43.92;98983.81;5110214;28;20518;-64
2022/04/26 06:53:04;;;;;;;2.38;1.05;;;;;;;21.67;44.05;98989.38;5109771;28;20414;-65
2022/04/26 06:55:30;;;;;;;2.42;1.00;;;;;;;21.70;44.11;98988.59;5109150;28;20040;-62
2022/04/26 06:57:55;;;;;;;1.27;0.90;;;;;;;21.72;44.05;98986.25;5104526;28;20050;-63
2022/04/26 07:00:21;;;;;;;3.33;1.02;;;;;;;21.71;43.58;98984.63;5103777;28;20169;-63
2022/04/26 07:02:46;;;;;;;2.80;1.00;;;;;;;21.74;43.88;98981.06;5105232;28;20036;-64
2022/04/26 07:05:14;;;;;;;4.97;1.00;;;;;;;21.77;43.67;98983.06;5105452;28;20402;-64
2022/04/26 07:07:40;;;;;;;2.33;1.08;;;;;;;21.79;43.51;98982.66;5074340;28;20048;-64
2022/04/26 07:10:06;;;;;;;1.90;0.90;;;;;;;21.80;43.42;98982.28;5087618;28;20054;-64
2022/04/26 07:12:32;;;;;;;1.52;0.90;;;;;;;21.84;43.34;98983.09;5093859;28;20040;-64
2022/04/26 07:14:57;;;;;;;4.90;1.42;;;;;;;21.86;43.77;98986.28;5102581;28;20032;-63
2022/04/26 07:17:23;;;;;;;1.80;1.20;;;;;;;21.88;43.32;98983.13;5098130;28;20077;-63
2022/04/26 07:19:48;;;;;;;2.15;1.13;;;;;;;21.90;43.51;98981.50;5098399;28;20476;-63
2022/04/26 07:22:14;;;;;;;1.88;1.00;;;;;;;21.91;43.06;98985.09;5100491;28;20474;-63
2022/04/26 07:24:40;;;;;;;1.75;1.05;;;;;;;21.91;43.34;98987.88;5096456;28;20044;-63
2022/04/26 07:27:05;;;;;;;1.45;0.93;;;;;;;21.98;43.16;98993.47;5098276;28;20032;-63
2022/04/26 07:29:31;;;;;;;1.48;0.90;;;;;;;22.73;42.28;98985.28;5093187;28;20051;-63
2022/04/26 07:31:56;;;;;;;1.58;0.98;;;;;;;23.63;40.46;98994.34;5089128;28;20062;-63
2022/04/26 07:34:22;;;;;;;1.80;1.10;;;;;;;24.30;39.06;98996.06;5098138;28;20047;-63
2022/04/26 07:37:04;;;;;;;2.00;1.10;;;;;;;23.89;39.35;98993.84;5098811;28;20453;-63
2022/04/26 07:39:33;;;;;;;3.25;1.52;;;;;;;23.40;40.17;98997.59;5092204;28;20105;-63
2022/04/26 07:41:59;;;;;;;6.63;2.55;;;;;;;23.09;40.89;98990.88;5108475;28;20131;-64
2022/04/26 07:44:24;;;;;;;8.43;3.22;;;;;;;22.90;41.46;98989.28;5095122;28;20127;-63
2022/04/26 07:46:51;;;;;;;12.48;3.80;;;;;;;22.76;41.55;98987.28;5112341;28;20126;-63
2022/04/26 07:49:19;;;;;;;12.52;4.15;;;;;;;22.67;41.86;99001.59;5111988;28;20050;-63
2022/04/26 07:51:44;;;;;;;15.45;5.75;;;;;;;22.63;42.10;98997.22;5112533;28;20089;-61
2022/04/26 07:54:10;;;;;;;19.23;7.72;;;;;;;22.54;42.29;98994.81;5110849;28;20044;-61
2022/04/26 07:56:36;;;;;;;22.27;7.45;;;;;;;22.54;42.30;98997.63;5099442;28;20054;-61
2022/04/26 07:59:03;;;;;;;19.17;6.78;;;;;;;22.52;42.56;98998.00;5106739;28;20047;-60
2022/04/26 08:01:29;;;;;;;16.77;5.88;;;;;;;22.51;42.66;98998.41;5106526;28;20052;-61
2022/04/26 08:03:55;;;;;;;14.55;5.60;;;;;;;22.51;42.50;99004.78;5107669;28;20537;-61
2022/04/26 08:06:20;;;;;;;12.85;5.25;;;;;;;22.49;42.89;99001.56;5098081;28;20062;-60
2022/04/26 08:08:46;;;;;;;14.55;5.00;;;;;;;22.52;42.68;99008.38;5108845;28;20048;-61
2022/04/26 08:11:13;;;;;;;19.20;5.10;;;;;;;22.47;43.18;99003.19;5109318;28;20040;-64
2022/04/26 08:13:40;;;;;;;14.48;5.50;;;;;;;22.52;42.67;99008.38;5111581;28;20048;-64
2022/04/26 08:16:06;;;;;;;12.00;5.13;;;;;;;22.52;43.05;99005.59;5103957;28;20091;-63
2022/04/26 08:18:32;;;;;;;14.93;5.28;;;;;;;22.49;42.72;99007.16;5107767;28;20043;-64
2022/04/26 08:20:57;;;;;;;15.13;5.70;;;;;;;22.44;42.65;99004.78;5106471;28;20123;-63
2022/04/26 08:23:23;;;;;;;11.80;5.10;;;;;;;22.43;43.11;99014.34;5100196;28;20131;-64
2022/04/26 08:28:33;;;;;;;17.83;6.80;;;;;;;22.40;42.75;99003.97;5105406;28;20128;-59
2022/04/26 08:31:00;;;;;;;17.17;7.43;;;;;;;22.40;42.91;99005.94;5107578;28;20529;-63
2022/04/26 08:33:26;;;;;;;21.48;7.65;;;;;;;22.40;42.96;99006.75;5106635;28;20132;-63
2022/04/26 08:35:52;;;;;;;16.80;8.07;;;;;;;22.40;42.93;99012.31;5110516;28;20455;-63
2022/04/26 08:38:17;;;;;;;21.95;8.23;;;;;;;22.42;43.21;99011.91;5104894;28;20044;-64
2022/04/26 08:40:42;;;;;;;23.17;9.43;;;;;;;22.42;43.30;99015.50;5101877;28;20180;-64
2022/04/26 08:43:08;;;;;;;22.40;9.55;;;;;;;22.42;43.39;99018.28;5110193;28;20069;-65
2022/04/26 08:45:38;;;;;;;29.65;10.45;;;;;;;22.45;43.50;99013.94;5105106;28;20557;-64
2022/04/26 08:51:05;;;;;;;36.65;14.57;;;;;;;22.44;43.19;99013.13;5102192;28;20135;-66
2022/04/26 08:53:35;;;;;;;48.08;18.67;;;;;;;22.48;43.43;99016.72;5098912;28;20043;-66
2022/04/26 08:56:06;;;;;;;36.53;15.85;;;;;;;22.48;43.12;99019.50;5102119;28;20441;-65
2022/04/26 08:58:33;;;;;;;41.85;16.35;;;;;;;22.49;43.30;99018.31;5102116;28;20047;-66
2022/04/26 09:01:12;;;;;;;41.88;15.20;;;;;;;22.47;43.22;99017.91;5103912;28;20568;-66
2022/04/26 09:03:56;;;;;;;45.95;16.60;;;;;;;22.48;42.99;99018.69;5109713;28;20050;-65
2022/04/26 09:06:40;;;;;;;49.28;19.58;;;;;;;22.48;43.13;99021.50;5098481;28;20116;-64
2022/04/26 09:09:24;;;;;;;50.08;19.10;;;;;;;22.48;42.79;99030.66;5104307;28;20127;-61
2022/04/26 09:11:50;;;;;;;54.72;21.35;;;;;;;22.48;43.02;99025.06;5108081;28;20062;-62
2022/04/26 09:14:37;;;;;;;52.70;20.77;;;;;;;22.48;42.83;99027.06;5103453;28;20043;-61
2022/04/26 09:17:07;;;;;;;47.08;17.83;;;;;;;22.48;42.72;99036.22;5103818;28;20165;-61
2022/04/26 09:19:55;;;;;;;54.80;22.05;;;;;;;22.51;42.70;99035.44;5109116;28;20043;-69
2022/04/26 09:22:26;;;;;;;80.25;31.83;;;;;;;22.53;42.93;99032.25;5087076;28;20090;-70
2022/04/26 09:25:05;;;;;;;72.78;29.65;;;;;;;22.60;43.46;99032.28;5086076;28;20135;-66
2022/04/26 09:27:35;;;;;;;76.47;31.05;;;;;;;22.65;43.91;99029.09;5094566;28;20215;-72
2022/04/26 09:30:10;;;;;;;85.70;34.00;;;;;;;22.73;43.79;99036.28;5104504;28;20162;-67
2022/04/26 09:32:45;;;;;;;79.63;32.45;;;;;;;22.78;43.55;99037.84;5075450;28;20549;-67
2022/04/26 09:35:21;;;;;;;77.00;32.95;;;;;;;22.77;43.60;99039.03;5102422;28;20127;-70
2022/04/26 09:37:47;;;;;;;80.30;31.23;;;;;;;22.73;43.43;99035.47;5103670;28;20035;-69
2022/04/26 09:40:12;;;;;;;71.88;30.25;;;;;;;22.77;43.58;99039.03;5108800;28;20039;-70
2022/04/26 09:42:37;;;;;;;69.60;30.02;;;;;;;22.77;43.26;99039.03;5108552;28;20456;-68
2022/04/26 09:45:13;;;;;;;68.55;28.65;;;;;;;22.77;43.78;99033.47;5092617;28;20081;-69
2022/04/26 09:47:42;;;;;;;65.80;28.83;;;;;;;22.76;43.38;99035.47;5098895;28;20527;-68
2022/04/26 09:50:15;;;;;;;64.55;26.70;;;;;;;22.80;43.50;99036.28;5082726;28;20582;-70
2022/04/26 09:52:41;;;;;;;57.55;24.48;;;;;;;22.79;43.46;99031.09;5106250;28;20510;-65
2022/04/26 09:55:09;;;;;;;52.75;22.67;;;;;;;22.79;43.32;99020.75;5100137;28;20047;-66
2022/04/26 09:57:38;;;;;;;53.25;20.73;;;;;;;22.84;43.31;99027.91;5107888;28;20407;-61
2022/04/26 10:00:12;;;;;;;46.50;18.30;;;;;;;22.83;43.29;99028.31;5110046;28;20040;-61
2022/04/26 10:02:45;;;;;;;39.28;16.15;;;;;;;22.82;43.26;99030.28;5109334;28;20096;-61
2022/04/26 10:05:14;;;;;;;34.53;15.05;;;;;;;22.82;43.35;99024.72;5108100;28;20154;-63
2022/04/26 10:07:46;;;;;;;32.83;14.10;;;;;;;22.83;43.20;99033.88;5106691;28;20073;-63
2022/04/26 10:10:13;;;;;;;30.08;12.80;;;;;;;22.85;43.50;99034.28;5107846;28;20082;-63
2022/04/26 10:12:41;;;;;;;27.02;12.40;;;;;;;22.86;43.53;99036.72;5104998;28;20472;-65
2022/04/26 10:15:07;;;;;;;31.50;12.77;;;;;;;22.89;43.35;99033.13;5102269;28;20043;-64
2022/04/26 10:17:32;;;;;;;27.80;12.98;;;;;;;22.88;43.16;99037.09;5101080;28;20062;-66
2022/04/26 10:20:02;;;;;;;32.30;12.75;;;;;;;22.88;43.14;99042.69;5102390;28;20113;-66
2022/04/26 10:23:06;;;;;;;27.33;10.75;;;;;;;22.87;43.20;99043.88;5100932;28;20043;-62
2022/04/26 10:25:31;;;;;;;23.05;10.60;;;;;;;22.86;43.18;99047.88;5023811;28;20049;-63
2022/04/26 10:28:28;;;;;;;21.10;9.55;;;;;;;22.85;42.99;99042.63;5005685;28;20046;-62
2022/04/26 10:30:55;;;;;;;21.88;8.70;;;;;;;22.84;42.85;99044.63;5006669;28;20068;-62
2022/04/26 10:33:40;;;;;;;17.95;7.80;;;;;;;22.84;43.00;99039.06;5007648;28;20054;-62
2022/04/26 10:36:27;;;;;;;14.95;6.47;;;;;;;22.84;42.76;99044.63;5002563;28;20054;-62
2022/04/26 10:39:07;;;;;;;13.40;6.28;;;;;;;22.84;42.86;99033.47;5011599;28;20050;-66
2022/04/26 10:41:52;;;;;;;15.25;6.68;;;;;;;22.86;42.50;99033.09;5013857;28;20053;-66
2022/04/26 10:44:17;;;;;;;13.77;5.90;;;;;;;22.85;42.69;99032.28;4999029;28;20141;-66
2022/04/26 10:46:52;;;;;;;11.82;5.35;;;;;;;22.85;42.52;99028.69;5015672;28;20556;-66
2022/04/26 10:51:48;;;;;;;10.02;4.95;;;;;;;22.87;42.15;99037.50;5026809;28;20069;-62
2022/04/26 10:54:13;;;;;;;8.70;4.15;;;;;;;22.88;42.31;99039.91;5027094;28;20476;-63
2022/04/26 10:56:39;;;;;;;9.00;4.22;;;;;;;22.87;42.20;99037.50;5069253;28;20055;-66
2022/04/26 10:59:14;;;;;;;7.68;3.90;;;;;;;22.87;42.24;99035.50;5104206;28;20047;-66
2022/04/26 11:01:41;;;;;;;8.43;4.03;;;;;;;22.88;42.07;99033.53;5101037;28;20032;-66
2022/04/26 11:04:07;;;;;;;7.30;3.08;;;;;;;22.88;42.21;99039.09;5095632;28;20047;-66
2022/04/26 11:06:38;;;;;;;6.43;3.45;;;;;;;22.87;42.04;99032.72;5092995;28;20027;-66
2022/04/26 11:09:12;;;;;;;6.65;3.38;;;;;;;22.87;42.06;99034.72;5097904;28;20051;-66
2022/04/26 11:11:54;;;;;;;7.20;3.05;;;;;;;22.87;41.82;99027.16;5093279;28;20055;-66
2022/04/26 11:14:21;;;;;;;5.72;2.70;;;;;;;22.88;41.92;99030.72;5103828;28;20556;-66
2022/04/26 11:16:57;;;;;;;6.53;2.80;;;;;;;22.87;41.81;99032.72;5108885;28;20047;-63
2022/04/26 11:19:36;;;;;;;6.00;2.78;;;;;;;22.88;41.82;99031.53;5095184;28;20113;-63
2022/04/26 11:22:05;;;;;;;5.28;2.40;;;;;;;22.88;41.66;99022.38;5098175;28;20278;-66
2022/04/26 11:30:02;;;;;;;5.15;2.05;;;;;;;22.87;41.95;99018.00;5094968;28;20139;-66
2022/04/26 11:32:31;;;;;;;3.78;2.08;;;;;;;22.87;41.55;99018.00;5102479;28;20092;-66
2022/04/26 11:34:57;;;;;;;3.85;1.65;;;;;;;22.83;41.74;99017.94;5086014;28;20039;-66
2022/04/26 11:37:23;;;;;;;3.67;1.83;;;;;;;22.85;41.71;99017.53;5102917;28;20044;-63
2022/04/26 11:39:49;;;;;;;5.10;1.90;;;;;;;22.85;41.34;99012.75;5098999;28;20035;-63
2022/04/26 11:42:14;;;;;;;3.75;1.95;;;;;;;22.84;41.35;99016.75;5097015;28;20451;-63
2022/04/26 11:45:05;;;;;;;4.05;1.98;;;;;;;22.82;41.78;99010.78;5089513;28;20493;-63
2022/04/26 11:47:48;;;;;;;4.05;1.40;;;;;;;22.85;41.27;99009.97;5086742;28;20051;-63
2022/04/26 11:50:22;;;;;;;2.38;1.50;;;;;;;22.83;41.11;99012.38;5086223;28;20052;-63
2022/04/26 11:52:49;;;;;;;4.13;1.67;;;;;;;22.82;41.10;99005.19;5087743;28;20415;-66
2022/04/26 11:55:21;;;;;;;2.53;1.45;;;;;;;22.80;41.05;99004.81;5088106;28;20044;-66
2022/04/26 11:57:48;;;;;;;3.53;1.58;;;;;;;22.81;41.20;99006.41;5081599;28;20112;-68
2022/04/26 12:00:18;;;;;;;3.28;1.63;;;;;;;22.80;41.02;98993.66;5090174;28;20048;-67
2022/04/26 12:02:47;;;;;;;2.50;1.40;;;;;;;22.80;41.22;98993.66;5088744;28;20040;-68
2022/04/26 12:05:14;;;;;;;3.58;1.30;;;;;;;22.82;41.10;98990.47;5090763;28;20535;-67
2022/04/26 12:07:42;;;;;;;2.95;1.40;;;;;;;22.81;41.24;98995.25;5097091;28;20044;-68
2022/04/26 12:10:35;;;;;;;2.55;1.27;;;;;;;22.82;40.90;98990.47;5102318;28;20327;-67
2022/04/26 12:13:02;;;;;;;4.93;1.10;;;;;;;22.83;41.18;98987.28;5090692;28;20044;-66
2022/04/26 12:15:30;;;;;;;2.28;1.20;;;;;;;22.83;41.17;98992.84;5086527;28;20076;-67
2022/04/26 12:18:05;;;;;;;2.10;1.10;;;;;;;22.79;41.03;98981.72;5097977;28;20558;-66
2022/04/26 12:20:32;;;;;;;2.17;1.15;;;;;;;22.76;41.25;98988.06;5086657;28;20048;-66
2022/04/26 12:22:57;;;;;;;2.13;1.27;;;;;;;22.73;41.24;98986.09;5094602;28;20040;-65
2022/04/26 12:25:23;;;;;;;2.60;1.17;;;;;;;22.74;41.52;98984.88;5105616;28;20077;-62
2022/04/26 12:28:07;;;;;;;1.73;1.05;;;;;;;22.78;41.17;98979.28;5092455;28;20475;-64
2022/04/26 12:30:34;;;;;;;3.55;1.30;;;;;;;22.75;41.27;98980.09;5102219;28;20059;-65
2022/04/26 12:32:59;;;;;;;2.05;1.20;;;;;;;22.72;41.38;98969.75;5101526;28;20035;-68
2022/04/26 12:35:25;;;;;;;2.53;1.13;;;;;;;22.70;41.28;98974.91;5095146;28;20074;-65
2022/04/26 12:38:05;;;;;;;2.03;1.13;;;;;;;22.70;41.37;98977.72;5092373;28;20032;-64
2022/04/26 12:40:31;;;;;;;10.18;3.38;;;;;;;22.73;41.59;98980.50;5093454;28;20039;-67
2022/04/26 12:42:57;;;;;;;5.93;2.80;;;;;;;22.70;41.25;98969.34;5090485;28;20040;-61
2022/04/26 12:45:23;;;;;;;5.65;2.75;;;;;;;22.73;41.36;98980.50;5091523;28;20048;-61
2022/04/26 12:50:53;;;;;;;;;;;;;;;22.77;41.22;98972.13;5089464;28;20552;-67
2022/04/26 12:53:28;;;;;;;3.70;2.15;;;;;;;22.74;41.17;98970.16;5093944;28;19923;-67
2022/04/26 12:55:54;;;;;;;4.47;2.15;;;;;;;22.72;40.85;98966.97;5093852;28;20035;-69
2022/04/26 12:58:38;;;;;;;4.80;2.30;;;;;;;22.72;41.26;98969.75;5067339;28;20136;-64
2022/04/26 13:01:05;;;;;;;4.47;1.85;;;;;;;22.70;41.33;98961.78;5089496;28;20507;-62
2022/04/26 13:03:30;;;;;;;3.88;1.60;;;;;;;22.70;40.94;98967.34;5091892;28;20081;-61
2022/04/26 13:06:09;;;;;;;3.95;1.90;;;;;;;22.70;41.07;98961.78;5092068;28;20044;-62
2022/04/26 13:08:35;;;;;;;3.58;1.60;;;;;;;22.72;40.89;98958.59;5092284;28;20051;-63
2022/04/26 13:11:00;;;;;;;2.60;1.58;;;;;;;22.73;40.88;98960.19;5088047;28;20620;-64
2022/04/26 13:13:29;;;;;;;6.38;2.80;;;;;;;22.73;41.01;98951.84;5091689;28;20035;-63
2022/04/26 13:15:54;;;;;;;6.25;3.05;;;;;;;22.73;41.05;98960.19;5089601;28;20052;-69
2022/04/26 13:18:20;;;;;;;5.13;2.30;;;;;;;22.73;40.76;98957.41;5098935;28;20134;-72
2022/04/26 13:20:46;;;;;;;5.03;2.50;;;;;;;22.75;41.05;98958.59;5094697;28;20166;-65
2022/04/26 13:23:12;;;;;;;10.13;4.60;;;;;;;22.78;40.93;98954.19;5098998;28;20089;-69
2022/04/26 13:25:38;;;;;;;8.85;3.50;;;;;;;22.74;40.67;98950.63;5097862;28;20056;-66
2022/04/26 13:28:04;;;;;;;6.70;3.72;;;;;;;22.72;40.81;98948.25;5091383;28;20050;-66
2022/04/26 13:30:30;;;;;;;8.82;3.78;;;;;;;22.75;40.71;98946.66;5095435;28;20500;-68
2022/04/26 13:32:55;;;;;;;6.90;3.05;;;;;;;22.78;40.67;98935.47;5097452;28;20036;-66
2022/04/26 13:35:22;;;;;;;6.28;3.42;;;;;;;22.76;40.62;98940.66;5098166;28;20184;-68
2022/04/26 13:37:47;;;;;;;8.70;3.53;;;;;;;22.76;40.42;98943.44;5094718;28;20051;-82
2022/04/26 13:40:13;;;;;;;7.18;3.50;;;;;;;22.73;40.76;98932.31;5096090;28;20044;-76
2022/04/26 13:42:39;;;;;;;8.48;3.92;;;;;;;22.73;40.76;98935.09;5095924;28;20491;-67
2022/04/26 13:45:06;;;;;;;9.13;3.30;;;;;;;22.78;41.11;98934.69;5098537;28;20129;-66
2022/04/26 13:47:32;;;;;;;7.72;3.13;;;;;;;22.80;40.68;98932.31;5094251;28;20071;-66
2022/04/26 13:49:57;;;;;;;7.75;2.90;;;;;;;22.78;40.79;98920.75;5095322;28;20116;-64
2022/04/26 13:52:23;;;;;;;6.47;2.80;;;;;;;22.78;40.75;98920.75;5096148;28;20054;-64
2022/04/26 13:54:49;;;;;;;5.10;2.22;;;;;;;22.77;40.68;98919.16;5102277;28;20050;-65
2022/04/26 13:57:16;;;;;;;12.05;4.72;;;;;;;22.77;40.85;98913.56;5100892;28;20050;-68
2022/04/26 13:59:42;;;;;;;10.70;4.70;;;;;;;22.75;40.62;98902.03;5098507;28;20131;-67
2022/04/26 14:02:08;;;;;;;11.95;5.40;;;;;;;22.80;40.92;98907.22;5091103;28;20052;-68
2022/04/26 14:04:34;;;;;;;13.38;5.22;;;;;;;22.81;40.77;98908.81;5097707;28;20423;-65
2022/04/26 14:07:00;;;;;;;11.73;5.18;;;;;;;22.79;40.75;98898.06;5086377;28;20036;-65
2022/04/26 14:09:25;;;;;;;13.32;5.75;;;;;;;22.84;40.63;98893.25;5096695;28;20115;-66
2022/04/26 14:11:53;;;;;;;11.80;5.00;;;;;;;22.86;40.67;98902.84;5094606;28;20678;-66
2022/04/26 14:22:32;;;;;;;10.88;4.97;;;;;;;22.89;40.59;98885.31;5099895;28;20063;-64
2022/04/26 14:25:08;;;;;;;12.05;4.95;;;;;;;22.90;40.31;98886.91;5098396;28;20032;-66
2022/04/26 14:27:35;;;;;;;10.32;4.57;;;;;;;22.92;40.51;98881.72;5105121;28;20344;-65
2022/04/26 14:30:02;;;;;;;14.43;5.15;;;;;;;22.94;40.66;98895.28;5098226;28;20631;-62
2022/04/26 14:32:27;;;;;;;12.65;5.22;;;;;;;22.94;40.13;98881.31;5107533;28;20426;-64
2022/04/26 14:34:53;;;;;;;11.43;5.13;;;;;;;22.96;39.97;98888.09;5087942;28;20522;-64
2022/04/26 14:37:19;;;;;;;11.38;5.32;;;;;;;22.94;39.98;98882.13;5102813;28;20101;-66
2022/04/26 14:39:45;;;;;;;13.18;6.38;;;;;;;22.94;39.67;98904.44;5107099;28;20043;-63
2022/04/26 14:42:10;;;;;;;15.70;6.93;;;;;;;22.94;39.68;98884.91;5107031;28;20040;-67
2022/04/26 14:44:36;;;;;;;13.80;6.40;;;;;;;22.96;39.76;98878.94;5093529;28;20121;-64
2022/04/26 14:47:02;;;;;;;13.73;6.28;;;;;;;22.98;39.66;98868.16;5091379;28;20546;-62
2022/04/26 14:49:28;;;;;;;13.68;5.85;;;;;;;22.98;39.56;98873.72;5077111;28;20040;-61
2022/04/26 14:51:54;;;;;;;11.40;5.32;;;;;;;22.96;39.72;98871.34;5095304;28;20043;-63
2022/04/26 14:54:20;;;;;;;13.00;5.50;;;;;;;22.91;39.53;98860.59;5075144;28;20138;-62
2022/04/26 14:56:47;;;;;;;8.73;4.60;;;;;;;22.97;39.44;98870.16;5099888;28;20042;-63
2022/04/26 14:59:13;;;;;;;10.90;4.57;;;;;;;22.96;39.30;98874.13;5104138;28;20503;-63
2022/04/26 15:01:43;;;;;;;9.02;4.60;;;;;;;22.94;39.37;98862.59;5107886;28;20087;-61
2022/04/26 15:04:09;;;;;;;9.02;3.78;;;;;;;22.96;39.39;98876.94;5098231;28;20555;-61
2022/04/26 15:06:34;;;;;;;6.82;3.20;;;;;;;22.97;39.32;98869.34;5099651;28;20052;-63
2022/04/26 15:11:44;;;;;;;6.55;2.92;;;;;;;22.98;39.31;98866.16;5098563;28;20144;-64
2022/04/26 15:16:54;;;;;;;4.88;2.50;;;;;;;23.00;39.27;98869.38;5095349;28;20529;-61
2022/04/26 15:19:20;;;;;;;3.80;2.17;;;;;;;23.03;39.34;98868.53;5104032;28;20039;-60
2022/04/26 15:21:45;;;;;;;4.13;2.15;;;;;;;23.05;39.72;98877.28;5092470;28;20158;-60
2022/04/26 15:24:12;;;;;;;6.07;1.95;;;;;;;23.06;39.39;98864.94;5095492;28;20514;-59
2022/04/26 15:26:38;;;;;;;5.43;2.40;;;;;;;23.30;39.57;98868.06;5091933;28;20044;-59
2022/04/26 15:29:07;;;;;;;15.90;2.53;;;;;;;24.24;38.13;98860.75;5093971;28;20055;-60
2022/04/26 15:31:33;;;;;;;7.13;2.47;;;;;;;24.28;37.20;98858.69;5105381;28;20052;-61
2022/04/26 15:33:59;;;;;;;8.55;2.60;;;;;;;23.96;37.52;98851.34;5103975;28;20042;-59
2022/04/26 15:36:24;;;;;;;8.07;2.78;;;;;;;23.71;38.04;98850.72;5096465;28;20043;-59
2022/04/26 15:38:56;;;;;;;5.78;2.72;;;;;;;23.58;38.74;98861.56;5085322;28;20043;-64
2022/04/26 15:41:23;;;;;;;12.77;3.67;;;;;;;23.43;38.84;98863.63;5092628;28;20044;-61
2022/04/26 15:43:49;;;;;;;11.90;4.22;;;;;;;23.32;39.31;98860.06;5088947;28;20063;-62